Terminal Aerodrome Forecast
Issued by NWS

Home | Current Version | Previous Version | Text Only | Print | Product List | Glossary On
Versions: 1 2 3 4 5 6 7 8 9 10 11 12 13 14 15 16 17 18 19 20
000
FTUS46 KPDT 110353 AAA
TAFPSC
TAF AMD
KPSC 110353Z 1104/1124 VRB03KT P6SM BKN015 OVC070
      TEMPO 1104/1106 SCT015 OVC070
     FM110600 21006KT P6SM VCSH BKN025 OVC035
     FM111100 22010KT P6SM SCT080 BKN100
     FM111600 21008KT P6SM -SN BKN008 OVC018=

USA.gov is the U.S. government's official web portal to all federal, state and local government web resources and services.